sensor_id;sensor_type;location;lat;lon;timestamp;P1;durP1;ratioP1;P2;durP2;ratioP2
56657;SDS011;42530;52.240;19.354;2022-09-28T00:00:05;18.15;;;16.38;;
56657;SDS011;42530;52.240;19.354;2022-09-28T00:02:32;18.00;;;16.38;;
56657;SDS011;42530;52.240;19.354;2022-09-28T00:04:59;17.38;;;15.60;;
56657;SDS011;42530;52.240;19.354;2022-09-28T00:07:25;16.02;;;14.23;;
56657;SDS011;42530;52.240;19.354;2022-09-28T00:09:51;15.02;;;13.55;;
56657;SDS011;42530;52.240;19.354;2022-09-28T00:12:17;13.90;;;12.43;;
56657;SDS011;42530;52.240;19.354;2022-09-28T00:14:42;11.52;;;10.27;;
56657;SDS011;42530;52.240;19.354;2022-09-28T00:17:09;13.00;;;11.73;;
56657;SDS011;42530;52.240;19.354;2022-09-28T00:19:36;11.65;;;10.60;;
56657;SDS011;42530;52.240;19.354;2022-09-28T00:22:04;13.40;;;11.07;;
56657;SDS011;42530;52.240;19.354;2022-09-28T00:24:32;10.13;;;9.13;;
56657;SDS011;42530;52.240;19.354;2022-09-28T00:26:58;11.05;;;9.93;;
56657;SDS011;42530;52.240;19.354;2022-09-28T00:29:26;11.05;;;9.25;;
56657;SDS011;42530;52.240;19.354;2022-09-28T00:31:57;13.55;;;11.63;;
56657;SDS011;42530;52.240;19.354;2022-09-28T00:34:31;10.75;;;9.60;;
56657;SDS011;42530;52.240;19.354;2022-09-28T00:37:03;20.45;;;12.45;;
56657;SDS011;42530;52.240;19.354;2022-09-28T00:39:30;11.73;;;10.52;;
56657;SDS011;42530;52.240;19.354;2022-09-28T00:41:56;12.07;;;10.80;;
56657;SDS011;42530;52.240;19.354;2022-09-28T00:47:03;14.68;;;12.52;;
56657;SDS011;42530;52.240;19.354;2022-09-28T00:52:59;13.10;;;11.50;;
56657;SDS011;42530;52.240;19.354;2022-09-28T00:55:37;13.85;;;12.30;;
56657;SDS011;42530;52.240;19.354;2022-09-28T00:58:12;13.40;;;12.02;;
56657;SDS011;42530;52.240;19.354;2022-09-28T01:00:43;14.23;;;10.77;;
56657;SDS011;42530;52.240;19.354;2022-09-28T01:03:09;16.17;;;14.50;;
56657;SDS011;42530;52.240;19.354;2022-09-28T01:05:41;20.58;;;14.77;;
56657;SDS011;42530;52.240;19.354;2022-09-28T01:08:09;20.88;;;15.45;;
56657;SDS011;42530;52.240;19.354;2022-09-28T01:10:38;8.95;;;6.05;;
56657;SDS011;42530;52.240;19.354;2022-09-28T01:13:05;7.90;;;7.40;;
56657;SDS011;42530;52.240;19.354;2022-09-28T01:15:30;5.93;;;5.63;;
56657;SDS011;42530;52.240;19.354;2022-09-28T01:20:48;7.53;;;4.65;;
56657;SDS011;42530;52.240;19.354;2022-09-28T01:28:27;4.47;;;4.05;;
56657;SDS011;42530;52.240;19.354;2022-09-28T01:33:46;19.23;;;5.85;;
56657;SDS011;42530;52.240;19.354;2022-09-28T01:39:19;6.55;;;5.55;;
56657;SDS011;42530;52.240;19.354;2022-09-28T01:41:50;5.10;;;4.80;;
56657;SDS011;42530;52.240;19.354;2022-09-28T01:44:18;4.35;;;3.95;;
56657;SDS011;42530;52.240;19.354;2022-09-28T01:46:47;4.40;;;4.10;;
56657;SDS011;42530;52.240;19.354;2022-09-28T01:49:22;3.55;;;3.45;;
56657;SDS011;42530;52.240;19.354;2022-09-28T01:55:04;3.92;;;3.72;;
56657;SDS011;42530;52.240;19.354;2022-09-28T02:00:06;7.45;;;7.15;;
56657;SDS011;42530;52.240;19.354;2022-09-28T02:02:36;7.35;;;6.85;;
56657;SDS011;42530;52.240;19.354;2022-09-28T02:05:16;6.00;;;5.65;;
56657;SDS011;42530;52.240;19.354;2022-09-28T02:07:49;5.78;;;5.47;;
56657;SDS011;42530;52.240;19.354;2022-09-28T02:10:20;4.85;;;4.57;;
56657;SDS011;42530;52.240;19.354;2022-09-28T02:12:55;2.55;;;2.38;;
56657;SDS011;42530;52.240;19.354;2022-09-28T02:15:32;3.92;;;3.72;;
56657;SDS011;42530;52.240;19.354;2022-09-28T02:18:18;4.97;;;4.13;;
56657;SDS011;42530;52.240;19.354;2022-09-28T02:20:48;3.40;;;3.30;;
56657;SDS011;42530;52.240;19.354;2022-09-28T02:23:20;4.78;;;4.57;;
56657;SDS011;42530;52.240;19.354;2022-09-28T02:26:07;4.10;;;3.85;;
56657;SDS011;42530;52.240;19.354;2022-09-28T02:28:36;5.15;;;4.75;;
56657;SDS011;42530;52.240;19.354;2022-09-28T02:31:01;3.15;;;3.05;;
56657;SDS011;42530;52.240;19.354;2022-09-28T02:33:32;6.18;;;5.80;;
56657;SDS011;42530;52.240;19.354;2022-09-28T02:36:01;5.03;;;4.65;;
56657;SDS011;42530;52.240;19.354;2022-09-28T02:38:28;3.92;;;3.63;;
56657;SDS011;42530;52.240;19.354;2022-09-28T02:41:20;4.82;;;4.45;;
56657;SDS011;42530;52.240;19.354;2022-09-28T02:46:49;4.90;;;4.53;;
56657;SDS011;42530;52.240;19.354;2022-09-28T03:01:00;3.97;;;3.65;;
56657;SDS011;42530;52.240;19.354;2022-09-28T03:03:23;3.65;;;3.45;;
56657;SDS011;42530;52.240;19.354;2022-09-28T03:09:00;2.03;;;2.00;;
56657;SDS011;42530;52.240;19.354;2022-09-28T03:11:29;2.58;;;2.38;;
56657;SDS011;42530;52.240;19.354;2022-09-28T03:14:02;4.20;;;3.90;;
56657;SDS011;42530;52.240;19.354;2022-09-28T03:16:28;5.30;;;4.22;;
56657;SDS011;42530;52.240;19.354;2022-09-28T03:18:56;3.35;;;3.22;;
56657;SDS011;42530;52.240;19.354;2022-09-28T03:21:21;3.03;;;2.72;;
56657;SDS011;42530;52.240;19.354;2022-09-28T03:23:47;4.00;;;3.63;;
56657;SDS011;42530;52.240;19.354;2022-09-28T03:26:13;5.45;;;5.05;;
56657;SDS011;42530;52.240;19.354;2022-09-28T03:28:40;4.00;;;3.33;;
56657;SDS011;42530;52.240;19.354;2022-09-28T03:31:05;5.00;;;4.70;;
56657;SDS011;42530;52.240;19.354;2022-09-28T03:33:31;5.38;;;4.88;;
56657;SDS011;42530;52.240;19.354;2022-09-28T03:35:57;3.80;;;3.55;;
56657;SDS011;42530;52.240;19.354;2022-09-28T03:38:23;7.10;;;6.57;;
56657;SDS011;42530;52.240;19.354;2022-09-28T03:40:52;3.00;;;2.80;;
56657;SDS011;42530;52.240;19.354;2022-09-28T03:43:22;3.35;;;3.10;;
56657;SDS011;42530;52.240;19.354;2022-09-28T03:45:58;3.72;;;3.45;;
56657;SDS011;42530;52.240;19.354;2022-09-28T03:48:25;5.75;;;5.35;;
56657;SDS011;42530;52.240;19.354;2022-09-28T03:50:53;3.78;;;3.55;;
56657;SDS011;42530;52.240;19.354;2022-09-28T03:53:20;2.65;;;2.45;;
56657;SDS011;42530;52.240;19.354;2022-09-28T03:55:46;2.28;;;2.10;;
56657;SDS011;42530;52.240;19.354;2022-09-28T03:58:11;3.58;;;3.28;;
56657;SDS011;42530;52.240;19.354;2022-09-28T04:00:37;4.57;;;3.70;;
56657;SDS011;42530;52.240;19.354;2022-09-28T04:03:03;2.63;;;2.53;;
56657;SDS011;42530;52.240;19.354;2022-09-28T04:05:28;5.03;;;4.70;;
56657;SDS011;42530;52.240;19.354;2022-09-28T04:07:54;5.80;;;5.35;;
56657;SDS011;42530;52.240;19.354;2022-09-28T04:10:23;5.45;;;5.00;;
56657;SDS011;42530;52.240;19.354;2022-09-28T04:12:53;3.58;;;3.38;;
56657;SDS011;42530;52.240;19.354;2022-09-28T04:15:24;4.35;;;4.05;;
56657;SDS011;42530;52.240;19.354;2022-09-28T04:17:50;3.17;;;3.08;;
56657;SDS011;42530;52.240;19.354;2022-09-28T04:20:15;3.63;;;3.42;;
56657;SDS011;42530;52.240;19.354;2022-09-28T04:22:41;3.10;;;3.00;;
56657;SDS011;42530;52.240;19.354;2022-09-28T04:25:08;4.57;;;3.97;;
56657;SDS011;42530;52.240;19.354;2022-09-28T04:27:34;3.13;;;3.03;;
56657;SDS011;42530;52.240;19.354;2022-09-28T04:30:18;2.90;;;2.80;;
56657;SDS011;42530;52.240;19.354;2022-09-28T04:32:47;4.10;;;3.78;;
56657;SDS011;42530;52.240;19.354;2022-09-28T04:35:13;8.18;;;6.47;;
56657;SDS011;42530;52.240;19.354;2022-09-28T04:37:38;4.18;;;3.92;;
56657;SDS011;42530;52.240;19.354;2022-09-28T04:40:04;7.32;;;6.28;;
56657;SDS011;42530;52.240;19.354;2022-09-28T04:42:30;3.83;;;3.60;;
56657;SDS011;42530;52.240;19.354;2022-09-28T04:44:56;4.97;;;4.53;;
56657;SDS011;42530;52.240;19.354;2022-09-28T04:47:22;5.57;;;5.28;;
56657;SDS011;42530;52.240;19.354;2022-09-28T04:49:49;7.25;;;6.85;;
56657;SDS011;42530;52.240;19.354;2022-09-28T04:52:15;5.15;;;4.80;;
56657;SDS011;42530;52.240;19.354;2022-09-28T04:54:40;5.30;;;5.03;;
56657;SDS011;42530;52.240;19.354;2022-09-28T04:57:06;6.30;;;5.90;;
56657;SDS011;42530;52.240;19.354;2022-09-28T04:59:32;5.63;;;5.10;;
56657;SDS011;42530;52.240;19.354;2022-09-28T05:01:57;5.05;;;4.68;;
56657;SDS011;42530;52.240;19.354;2022-09-28T05:04:23;6.63;;;5.88;;
56657;SDS011;42530;52.240;19.354;2022-09-28T05:06:49;6.95;;;6.38;;
56657;SDS011;42530;52.240;19.354;2022-09-28T05:09:15;7.28;;;6.72;;
56657;SDS011;42530;52.240;19.354;2022-09-28T05:11:40;5.63;;;5.22;;
56657;SDS011;42530;52.240;19.354;2022-09-28T05:14:06;4.10;;;3.90;;
56657;SDS011;42530;52.240;19.354;2022-09-28T05:16:31;5.30;;;5.00;;
56657;SDS011;42530;52.240;19.354;2022-09-28T05:19:00;4.63;;;4.32;;
56657;SDS011;42530;52.240;19.354;2022-09-28T05:21:26;4.90;;;4.22;;
56657;SDS011;42530;52.240;19.354;2022-09-28T05:23:55;5.40;;;4.90;;
56657;SDS011;42530;52.240;19.354;2022-09-28T05:26:22;4.60;;;4.32;;
56657;SDS011;42530;52.240;19.354;2022-09-28T05:28:51;6.18;;;4.88;;
56657;SDS011;42530;52.240;19.354;2022-09-28T05:31:17;3.97;;;3.75;;
56657;SDS011;42530;52.240;19.354;2022-09-28T05:33:42;6.13;;;5.63;;
56657;SDS011;42530;52.240;19.354;2022-09-28T05:36:08;20.50;;;5.45;;
56657;SDS011;42530;52.240;19.354;2022-09-28T05:38:37;3.83;;;3.63;;
56657;SDS011;42530;52.240;19.354;2022-09-28T05:41:03;6.15;;;5.82;;
56657;SDS011;42530;52.240;19.354;2022-09-28T05:43:29;4.90;;;4.57;;
56657;SDS011;42530;52.240;19.354;2022-09-28T05:45:54;4.47;;;4.28;;
56657;SDS011;42530;52.240;19.354;2022-09-28T05:48:20;6.07;;;5.40;;
56657;SDS011;42530;52.240;19.354;2022-09-28T05:50:51;6.90;;;6.35;;
56657;SDS011;42530;52.240;19.354;2022-09-28T05:53:17;10.05;;;9.35;;
56657;SDS011;42530;52.240;19.354;2022-09-28T05:55:43;7.78;;;7.28;;
56657;SDS011;42530;52.240;19.354;2022-09-28T05:58:08;4.90;;;4.50;;
56657;SDS011;42530;52.240;19.354;2022-09-28T06:00:34;8.27;;;7.78;;
56657;SDS011;42530;52.240;19.354;2022-09-28T06:03:04;7.55;;;5.65;;
56657;SDS011;42530;52.240;19.354;2022-09-28T06:05:32;9.57;;;8.95;;
56657;SDS011;42530;52.240;19.354;2022-09-28T06:08:00;6.75;;;4.97;;
56657;SDS011;42530;52.240;19.354;2022-09-28T06:10:28;6.95;;;6.35;;
56657;SDS011;42530;52.240;19.354;2022-09-28T06:12:54;3.65;;;3.45;;
56657;SDS011;42530;52.240;19.354;2022-09-28T06:15:21;6.30;;;5.90;;
56657;SDS011;42530;52.240;19.354;2022-09-28T06:17:54;5.68;;;4.95;;
56657;SDS011;42530;52.240;19.354;2022-09-28T06:20:23;6.45;;;6.03;;
56657;SDS011;42530;52.240;19.354;2022-09-28T06:22:51;5.45;;;5.03;;
56657;SDS011;42530;52.240;19.354;2022-09-28T06:25:18;4.90;;;4.63;;
56657;SDS011;42530;52.240;19.354;2022-09-28T06:30:21;4.85;;;4.55;;
56657;SDS011;42530;52.240;19.354;2022-09-28T06:32:50;3.28;;;3.17;;
56657;SDS011;42530;52.240;19.354;2022-09-28T06:35:16;6.07;;;3.92;;
56657;SDS011;42530;52.240;19.354;2022-09-28T06:37:45;7.00;;;6.15;;
56657;SDS011;42530;52.240;19.354;2022-09-28T06:40:10;6.97;;;6.55;;
56657;SDS011;42530;52.240;19.354;2022-09-28T06:42:36;6.30;;;5.90;;
56657;SDS011;42530;52.240;19.354;2022-09-28T06:45:01;4.97;;;4.57;;
56657;SDS011;42530;52.240;19.354;2022-09-28T06:47:27;5.70;;;5.30;;
56657;SDS011;42530;52.240;19.354;2022-09-28T06:49:52;2.25;;;2.15;;
56657;SDS011;42530;52.240;19.354;2022-09-28T06:52:19;4.97;;;4.60;;
56657;SDS011;42530;52.240;19.354;2022-09-28T06:54:45;4.35;;;4.05;;
56657;SDS011;42530;52.240;19.354;2022-09-28T06:57:11;3.45;;;3.15;;
56657;SDS011;42530;52.240;19.354;2022-09-28T06:59:36;3.83;;;3.53;;
56657;SDS011;42530;52.240;19.354;2022-09-28T07:02:02;4.82;;;4.45;;
56657;SDS011;42530;52.240;19.354;2022-09-28T07:04:28;3.33;;;3.03;;
56657;SDS011;42530;52.240;19.354;2022-09-28T07:06:55;5.72;;;5.30;;
56657;SDS011;42530;52.240;19.354;2022-09-28T07:09:21;3.65;;;3.35;;
56657;SDS011;42530;52.240;19.354;2022-09-28T07:11:47;3.70;;;3.55;;
56657;SDS011;42530;52.240;19.354;2022-09-28T07:14:12;3.80;;;3.60;;
56657;SDS011;42530;52.240;19.354;2022-09-28T07:16:38;3.63;;;3.40;;
56657;SDS011;42530;52.240;19.354;2022-09-28T07:19:03;4.53;;;4.15;;
56657;SDS011;42530;52.240;19.354;2022-09-28T07:21:29;4.95;;;4.65;;
56657;SDS011;42530;52.240;19.354;2022-09-28T07:23:54;4.53;;;4.15;;
56657;SDS011;42530;52.240;19.354;2022-09-28T07:26:20;2.25;;;1.92;;
56657;SDS011;42530;52.240;19.354;2022-09-28T07:28:46;2.53;;;2.42;;
56657;SDS011;42530;52.240;19.354;2022-09-28T07:31:11;2.30;;;2.22;;
56657;SDS011;42530;52.240;19.354;2022-09-28T07:33:36;6.95;;;6.38;;
56657;SDS011;42530;52.240;19.354;2022-09-28T07:36:02;1.30;;;1.30;;
56657;SDS011;42530;52.240;19.354;2022-09-28T07:38:31;2.47;;;2.33;;
56657;SDS011;42530;52.240;19.354;2022-09-28T07:40:57;3.10;;;3.00;;
56657;SDS011;42530;52.240;19.354;2022-09-28T07:43:35;3.33;;;2.65;;
56657;SDS011;42530;52.240;19.354;2022-09-28T07:46:03;2.45;;;2.35;;
56657;SDS011;42530;52.240;19.354;2022-09-28T07:48:33;1.88;;;1.77;;
56657;SDS011;42530;52.240;19.354;2022-09-28T07:51:02;1.30;;;1.20;;
56657;SDS011;42530;52.240;19.354;2022-09-28T07:53:28;2.13;;;2.05;;
56657;SDS011;42530;52.240;19.354;2022-09-28T07:55:58;2.38;;;2.28;;
56657;SDS011;42530;52.240;19.354;2022-09-28T07:58:31;2.72;;;2.63;;
56657;SDS011;42530;52.240;19.354;2022-09-28T08:00:57;27.38;;;3.80;;
56657;SDS011;42530;52.240;19.354;2022-09-28T08:03:25;1.65;;;1.63;;
56657;SDS011;42530;52.240;19.354;2022-09-28T08:05:56;4.13;;;3.92;;
56657;SDS011;42530;52.240;19.354;2022-09-28T08:08:25;0.60;;;0.60;;
56657;SDS011;42530;52.240;19.354;2022-09-28T08:10:51;2.40;;;1.70;;
56657;SDS011;42530;52.240;19.354;2022-09-28T08:13:17;3.85;;;3.65;;
56657;SDS011;42530;52.240;19.354;2022-09-28T08:15:44;2.58;;;2.47;;
56657;SDS011;42530;52.240;19.354;2022-09-28T08:18:12;2.35;;;1.67;;
56657;SDS011;42530;52.240;19.354;2022-09-28T08:20:38;3.42;;;3.13;;
56657;SDS011;42530;52.240;19.354;2022-09-28T08:23:22;3.53;;;2.33;;
56657;SDS011;42530;52.240;19.354;2022-09-28T08:25:48;2.53;;;2.20;;
56657;SDS011;42530;52.240;19.354;2022-09-28T08:28:15;2.17;;;2.05;;
56657;SDS011;42530;52.240;19.354;2022-09-28T08:30:43;2.45;;;2.35;;
56657;SDS011;42530;52.240;19.354;2022-09-28T08:33:10;2.80;;;2.60;;
56657;SDS011;42530;52.240;19.354;2022-09-28T08:35:40;0.93;;;0.93;;
56657;SDS011;42530;52.240;19.354;2022-09-28T08:38:06;0.93;;;0.93;;
56657;SDS011;42530;52.240;19.354;2022-09-28T08:41:10;1.20;;;1.20;;
56657;SDS011;42530;52.240;19.354;2022-09-28T08:46:10;1.33;;;1.33;;
56657;SDS011;42530;52.240;19.354;2022-09-28T08:48:45;1.23;;;1.15;;
56657;SDS011;42530;52.240;19.354;2022-09-28T08:51:22;0.80;;;0.80;;
56657;SDS011;42530;52.240;19.354;2022-09-28T08:53:54;1.10;;;1.10;;
56657;SDS011;42530;52.240;19.354;2022-09-28T08:56:30;1.60;;;1.52;;
56657;SDS011;42530;52.240;19.354;2022-09-28T08:59:06;1.40;;;1.40;;
56657;SDS011;42530;52.240;19.354;2022-09-28T09:01:37;0.80;;;0.80;;
56657;SDS011;42530;52.240;19.354;2022-09-28T09:04:08;0.70;;;0.70;;
56657;SDS011;42530;52.240;19.354;2022-09-28T09:06:38;0.88;;;0.88;;
56657;SDS011;42530;52.240;19.354;2022-09-28T09:14:48;8.88;;;8.13;;
56657;SDS011;42530;52.240;19.354;2022-09-28T09:17:34;7.10;;;6.65;;
56657;SDS011;42530;52.240;19.354;2022-09-28T09:25:49;7.75;;;7.15;;
56657;SDS011;42530;52.240;19.354;2022-09-28T09:31:18;8.73;;;8.02;;
56657;SDS011;42530;52.240;19.354;2022-09-28T09:34:03;8.82;;;7.68;;
56657;SDS011;42530;52.240;19.354;2022-09-28T09:39:56;9.00;;;8.30;;
56657;SDS011;42530;52.240;19.354;2022-09-28T09:47:48;7.07;;;6.43;;
56657;SDS011;42530;52.240;19.354;2022-09-28T09:55:55;10.45;;;7.53;;
56657;SDS011;42530;52.240;19.354;2022-09-28T09:58:27;7.65;;;7.05;;
56657;SDS011;42530;52.240;19.354;2022-09-28T10:01:12;8.73;;;7.18;;
56657;SDS011;42530;52.240;19.354;2022-09-28T10:03:41;7.15;;;6.63;;
56657;SDS011;42530;52.240;19.354;2022-09-28T10:06:16;7.63;;;6.88;;
56657;SDS011;42530;52.240;19.354;2022-09-28T10:08:57;7.68;;;7.07;;
56657;SDS011;42530;52.240;19.354;2022-09-28T10:11:26;8.52;;;7.78;;
56657;SDS011;42530;52.240;19.354;2022-09-28T10:13:56;9.70;;;6.97;;
56657;SDS011;42530;52.240;19.354;2022-09-28T10:16:21;6.70;;;5.78;;
56657;SDS011;42530;52.240;19.354;2022-09-28T10:18:48;6.25;;;5.45;;
56657;SDS011;42530;52.240;19.354;2022-09-28T10:21:14;7.05;;;6.47;;
56657;SDS011;42530;52.240;19.354;2022-09-28T10:23:44;8.07;;;6.47;;
56657;SDS011;42530;52.240;19.354;2022-09-28T10:26:19;5.75;;;4.97;;
56657;SDS011;42530;52.240;19.354;2022-09-28T10:28:59;5.60;;;5.10;;
56657;SDS011;42530;52.240;19.354;2022-09-28T10:34:03;6.32;;;5.78;;
56657;SDS011;42530;52.240;19.354;2022-09-28T10:36:43;5.78;;;5.28;;
56657;SDS011;42530;52.240;19.354;2022-09-28T10:41:59;5.68;;;5.18;;
56657;SDS011;42530;52.240;19.354;2022-09-28T10:44:29;5.75;;;5.25;;
56657;SDS011;42530;52.240;19.354;2022-09-28T10:47:01;6.45;;;5.88;;
56657;SDS011;42530;52.240;19.354;2022-09-28T10:49:30;8.05;;;7.28;;
56657;SDS011;42530;52.240;19.354;2022-09-28T10:57:44;7.10;;;6.45;;
56657;SDS011;42530;52.240;19.354;2022-09-28T11:00:28;6.97;;;6.38;;
56657;SDS011;42530;52.240;19.354;2022-09-28T11:03:04;7.50;;;6.80;;
56657;SDS011;42530;52.240;19.354;2022-09-28T11:05:30;7.88;;;7.15;;
56657;SDS011;42530;52.240;19.354;2022-09-28T11:07:57;8.77;;;8.07;;
56657;SDS011;42530;52.240;19.354;2022-09-28T11:10:31;10.57;;;8.77;;
56657;SDS011;42530;52.240;19.354;2022-09-28T11:12:58;8.57;;;7.88;;
56657;SDS011;42530;52.240;19.354;2022-09-28T11:15:26;8.02;;;7.32;;
56657;SDS011;42530;52.240;19.354;2022-09-28T11:17:54;9.38;;;7.20;;
56657;SDS011;42530;52.240;19.354;2022-09-28T11:22:49;8.27;;;7.45;;
56657;SDS011;42530;52.240;19.354;2022-09-28T11:25:38;8.18;;;5.68;;
56657;SDS011;42530;52.240;19.354;2022-09-28T11:28:05;8.93;;;5.75;;
56657;SDS011;42530;52.240;19.354;2022-09-28T11:30:49;7.50;;;6.10;;
56657;SDS011;42530;52.240;19.354;2022-09-28T11:41:27;7.70;;;4.15;;
56657;SDS011;42530;52.240;19.354;2022-09-28T11:49:42;5.32;;;4.47;;
56657;SDS011;42530;52.240;19.354;2022-09-28T11:52:19;4.20;;;3.85;;
56657;SDS011;42530;52.240;19.354;2022-09-28T11:54:59;4.30;;;4.10;;
56657;SDS011;42530;52.240;19.354;2022-09-28T11:57:31;4.78;;;4.47;;
56657;SDS011;42530;52.240;19.354;2022-09-28T12:00:03;5.82;;;4.57;;
56657;SDS011;42530;52.240;19.354;2022-09-28T12:05:55;7.20;;;6.50;;
56657;SDS011;42530;52.240;19.354;2022-09-28T12:08:33;7.78;;;7.05;;
56657;SDS011;42530;52.240;19.354;2022-09-28T12:13:41;5.22;;;4.80;;
56657;SDS011;42530;52.240;19.354;2022-09-28T12:23:53;3.10;;;2.95;;
56657;SDS011;42530;52.240;19.354;2022-09-28T12:29:14;5.68;;;5.13;;
56657;SDS011;42530;52.240;19.354;2022-09-28T12:31:52;6.95;;;6.35;;
56657;SDS011;42530;52.240;19.354;2022-09-28T12:34:23;3.10;;;2.90;;
56657;SDS011;42530;52.240;19.354;2022-09-28T12:36:56;2.67;;;2.58;;
56657;SDS011;42530;52.240;19.354;2022-09-28T12:42:25;2.58;;;2.47;;
56657;SDS011;42530;52.240;19.354;2022-09-28T12:45:15;4.07;;;3.78;;
56657;SDS011;42530;52.240;19.354;2022-09-28T12:58:37;3.53;;;3.22;;
56657;SDS011;42530;52.240;19.354;2022-09-28T13:03:59;5.72;;;5.22;;
56657;SDS011;42530;52.240;19.354;2022-09-28T13:10:20;3.92;;;3.72;;
56657;SDS011;42530;52.240;19.354;2022-09-28T13:15:31;3.90;;;3.70;;
56657;SDS011;42530;52.240;19.354;2022-09-28T13:21:16;4.85;;;4.45;;
56657;SDS011;42530;52.240;19.354;2022-09-28T13:23:50;4.32;;;3.90;;
56657;SDS011;42530;52.240;19.354;2022-09-28T13:26:21;5.05;;;4.70;;
56657;SDS011;42530;52.240;19.354;2022-09-28T13:28:53;4.32;;;4.03;;
56657;SDS011;42530;52.240;19.354;2022-09-28T13:31:26;5.22;;;4.82;;
56657;SDS011;42530;52.240;19.354;2022-09-28T13:33:59;6.13;;;5.63;;
56657;SDS011;42530;52.240;19.354;2022-09-28T13:38:53;6.93;;;6.20;;
56657;SDS011;42530;52.240;19.354;2022-09-28T13:41:27;5.53;;;5.13;;
56657;SDS011;42530;52.240;19.354;2022-09-28T13:49:29;5.80;;;5.40;;
56657;SDS011;42530;52.240;19.354;2022-09-28T13:54:38;6.95;;;6.35;;
56657;SDS011;42530;52.240;19.354;2022-09-28T14:00:34;4.82;;;4.43;;
56657;SDS011;42530;52.240;19.354;2022-09-28T14:06:04;5.72;;;5.20;;
56657;SDS011;42530;52.240;19.354;2022-09-28T14:11:52;6.50;;;4.65;;
56657;SDS011;42530;52.240;19.354;2022-09-28T14:16:43;5.45;;;5.05;;
56657;SDS011;42530;52.240;19.354;2022-09-28T14:21:58;4.25;;;3.95;;
56657;SDS011;42530;52.240;19.354;2022-09-28T14:32:55;4.40;;;4.00;;
56657;SDS011;42530;52.240;19.354;2022-09-28T14:35:27;4.72;;;4.32;;
56657;SDS011;42530;52.240;19.354;2022-09-28T14:38:04;4.30;;;4.00;;
56657;SDS011;42530;52.240;19.354;2022-09-28T14:41:01;4.30;;;3.90;;
56657;SDS011;42530;52.240;19.354;2022-09-28T14:48:47;5.45;;;5.15;;
56657;SDS011;42530;52.240;19.354;2022-09-28T14:53:53;7.32;;;6.72;;
56657;SDS011;42530;52.240;19.354;2022-09-28T14:56:38;10.07;;;8.75;;
56657;SDS011;42530;52.240;19.354;2022-09-28T14:59:17;10.18;;;8.50;;
56657;SDS011;42530;52.240;19.354;2022-09-28T15:01:50;10.38;;;9.35;;
56657;SDS011;42530;52.240;19.354;2022-09-28T15:04:42;9.40;;;8.43;;
56657;SDS011;42530;52.240;19.354;2022-09-28T15:07:20;6.85;;;6.25;;
56657;SDS011;42530;52.240;19.354;2022-09-28T15:09:54;7.30;;;6.05;;
56657;SDS011;42530;52.240;19.354;2022-09-28T15:12:27;9.02;;;8.20;;
56657;SDS011;42530;52.240;19.354;2022-09-28T15:14:58;7.22;;;6.60;;
56657;SDS011;42530;52.240;19.354;2022-09-28T15:17:30;9.85;;;8.95;;
56657;SDS011;42530;52.240;19.354;2022-09-28T15:22:33;9.60;;;8.43;;
56657;SDS011;42530;52.240;19.354;2022-09-28T15:25:01;10.27;;;9.30;;
56657;SDS011;42530;52.240;19.354;2022-09-28T15:27:37;6.68;;;6.28;;
56657;SDS011;42530;52.240;19.354;2022-09-28T15:32:50;7.03;;;6.50;;
56657;SDS011;42530;52.240;19.354;2022-09-28T15:35:22;6.15;;;5.65;;
56657;SDS011;42530;52.240;19.354;2022-09-28T15:37:50;5.63;;;5.22;;
56657;SDS011;42530;52.240;19.354;2022-09-28T15:40:18;5.43;;;5.03;;
56657;SDS011;42530;52.240;19.354;2022-09-28T15:42:52;7.78;;;7.18;;
56657;SDS011;42530;52.240;19.354;2022-09-28T15:45:30;6.05;;;5.65;;
56657;SDS011;42530;52.240;19.354;2022-09-28T15:48:35;5.30;;;4.90;;
56657;SDS011;42530;52.240;19.354;2022-09-28T15:51:05;8.25;;;7.45;;
56657;SDS011;42530;52.240;19.354;2022-09-28T15:53:58;6.35;;;5.75;;
56657;SDS011;42530;52.240;19.354;2022-09-28T15:56:22;7.78;;;7.07;;
56657;SDS011;42530;52.240;19.354;2022-09-28T15:59:07;6.93;;;6.43;;
56657;SDS011;42530;52.240;19.354;2022-09-28T16:01:38;7.00;;;6.38;;
56657;SDS011;42530;52.240;19.354;2022-09-28T16:12:21;8.48;;;7.80;;
56657;SDS011;42530;52.240;19.354;2022-09-28T16:14:48;10.93;;;9.85;;
56657;SDS011;42530;52.240;19.354;2022-09-28T16:17:30;8.52;;;7.72;;
56657;SDS011;42530;52.240;19.354;2022-09-28T16:20:00;8.43;;;6.53;;
56657;SDS011;42530;52.240;19.354;2022-09-28T16:22:28;7.78;;;7.20;;
56657;SDS011;42530;52.240;19.354;2022-09-28T16:24:58;10.32;;;9.52;;
56657;SDS011;42530;52.240;19.354;2022-09-28T16:27:29;12.70;;;10.82;;
56657;SDS011;42530;52.240;19.354;2022-09-28T16:33:00;11.30;;;10.23;;
56657;SDS011;42530;52.240;19.354;2022-09-28T16:35:31;13.18;;;11.82;;
56657;SDS011;42530;52.240;19.354;2022-09-28T16:38:01;11.80;;;10.32;;
56657;SDS011;42530;52.240;19.354;2022-09-28T16:40:39;10.57;;;9.60;;
56657;SDS011;42530;52.240;19.354;2022-09-28T16:43:07;12.18;;;11.15;;
56657;SDS011;42530;52.240;19.354;2022-09-28T16:45:41;10.47;;;9.20;;
56657;SDS011;42530;52.240;19.354;2022-09-28T16:48:08;12.15;;;10.13;;
56657;SDS011;42530;52.240;19.354;2022-09-28T16:50:39;18.70;;;16.70;;
56657;SDS011;42530;52.240;19.354;2022-09-28T16:53:10;15.73;;;14.15;;
56657;SDS011;42530;52.240;19.354;2022-09-28T16:55:57;13.07;;;11.90;;
56657;SDS011;42530;52.240;19.354;2022-09-28T16:58:23;11.30;;;10.02;;
56657;SDS011;42530;52.240;19.354;2022-09-28T17:00:49;11.75;;;10.77;;
56657;SDS011;42530;52.240;19.354;2022-09-28T17:03:16;11.95;;;10.77;;
56657;SDS011;42530;52.240;19.354;2022-09-28T17:05:44;10.95;;;9.90;;
56657;SDS011;42530;52.240;19.354;2022-09-28T17:08:16;10.45;;;9.45;;
56657;SDS011;42530;52.240;19.354;2022-09-28T17:10:52;10.00;;;9.07;;
56657;SDS011;42530;52.240;19.354;2022-09-28T17:13:24;10.23;;;9.13;;
56657;SDS011;42530;52.240;19.354;2022-09-28T17:15:55;12.77;;;11.00;;
56657;SDS011;42530;52.240;19.354;2022-09-28T17:18:23;11.88;;;10.73;;
56657;SDS011;42530;52.240;19.354;2022-09-28T17:20:50;16.17;;;11.18;;
56657;SDS011;42530;52.240;19.354;2022-09-28T17:23:16;13.00;;;11.70;;
56657;SDS011;42530;52.240;19.354;2022-09-28T17:25:45;13.25;;;12.00;;
56657;SDS011;42530;52.240;19.354;2022-09-28T17:28:18;15.82;;;14.13;;
56657;SDS011;42530;52.240;19.354;2022-09-28T17:30:46;10.20;;;9.17;;
56657;SDS011;42530;52.240;19.354;2022-09-28T17:33:12;16.23;;;11.75;;
56657;SDS011;42530;52.240;19.354;2022-09-28T17:35:38;14.18;;;12.43;;
56657;SDS011;42530;52.240;19.354;2022-09-28T17:38:05;14.98;;;12.43;;
56657;SDS011;42530;52.240;19.354;2022-09-28T17:40:31;10.13;;;8.77;;
56657;SDS011;42530;52.240;19.354;2022-09-28T17:42:57;9.13;;;8.32;;
56657;SDS011;42530;52.240;19.354;2022-09-28T17:45:24;11.45;;;10.30;;
56657;SDS011;42530;52.240;19.354;2022-09-28T17:47:52;10.02;;;9.13;;
56657;SDS011;42530;52.240;19.354;2022-09-28T17:50:25;9.65;;;8.88;;
56657;SDS011;42530;52.240;19.354;2022-09-28T17:52:54;11.60;;;10.43;;
56657;SDS011;42530;52.240;19.354;2022-09-28T17:55:22;12.63;;;10.85;;
56657;SDS011;42530;52.240;19.354;2022-09-28T17:57:53;12.38;;;11.07;;
56657;SDS011;42530;52.240;19.354;2022-09-28T18:00:19;11.13;;;10.13;;
56657;SDS011;42530;52.240;19.354;2022-09-28T18:02:45;13.95;;;10.88;;
56657;SDS011;42530;52.240;19.354;2022-09-28T18:05:11;11.20;;;10.13;;
56657;SDS011;42530;52.240;19.354;2022-09-28T18:07:40;10.88;;;9.90;;
56657;SDS011;42530;52.240;19.354;2022-09-28T18:10:06;10.88;;;9.88;;
56657;SDS011;42530;52.240;19.354;2022-09-28T18:12:37;11.75;;;10.75;;